Time;durP1;ratioP1;P1;durP2;ratioP2;P2;SDS_P1;SDS_P2;PMS_P1;PMS_P2;Temp;Humidity;BMP_temperature;BMP_pressure;BME280_temperature;BME280_humidity;BME280_pressure;Samples;Min_cycle;Max_cycle;Signal;HPM_P1;HPM_P2
2022/08/07 00:01:06;;;;;;;7.12;6.53;;;;;;;;;;4432023;32;20304;-89
2022/08/07 00:03:31;;;;;;;7.60;6.85;;;;;;;;;;4439466;32;20236;-88
2022/08/07 00:05:58;;;;;;;7.75;6.95;;;;;;;;;;4447692;32;20200;-89
2022/08/07 00:08:24;;;;;;;6.80;6.20;;;;;;;;;;4447647;32;20224;-89
2022/08/07 00:10:51;;;;;;;7.22;6.37;;;;;;;;;;4447470;32;20740;-89
2022/08/07 00:13:18;;;;;;;6.40;5.87;;;;;;;;;;4447508;32;20244;-89
2022/08/07 00:15:44;;;;;;;9.75;6.43;;;;;;;;;;4447543;32;20631;-90
2022/08/07 00:18:11;;;;;;;8.43;6.20;;;;;;;;;;4447153;32;20201;-86
2022/08/07 00:20:37;;;;;;;6.70;6.10;;;;;;;;;;4444454;32;20255;-91
2022/08/07 00:23:07;;;;;;;6.80;5.55;;;;;;;;;;4432221;32;20698;-85
2022/08/07 00:25:33;;;;;;;6.82;6.10;;;;;;;;;;4431784;32;20212;-84
2022/08/07 00:27:59;;;;;;;7.05;6.32;;;;;;;;;;4431493;32;20919;-85
2022/08/07 00:30:25;;;;;;;8.15;6.65;;;;;;;;;;4430800;32;20213;-91
2022/08/07 00:32:50;;;;;;;19.92;6.25;;;;;;;;;;4431423;32;20232;-87
2022/08/07 00:35:20;;;;;;;7.97;6.72;;;;;;;;;;4431641;32;20348;-90
2022/08/07 00:37:46;;;;;;;6.93;5.60;;;;;;;;;;4431806;32;20650;-90
2022/08/07 00:40:13;;;;;;;8.10;6.78;;;;;;;;;;4431725;32;20645;-90
2022/08/07 00:42:40;;;;;;;12.45;5.93;;;;;;;;;;4432172;32;20353;-91
2022/08/07 00:45:07;;;;;;;6.57;5.97;;;;;;;;;;4433477;32;20233;-89
2022/08/07 00:47:32;;;;;;;10.50;5.50;;;;;;;;;;4437388;32;20289;-83
2022/08/07 00:49:58;;;;;;;7.00;5.62;;;;;;;;;;4437109;32;20276;-88
2022/08/07 00:52:24;;;;;;;8.00;6.37;;;;;;;;;;4432660;32;20228;-90
2022/08/07 00:54:51;;;;;;;12.05;6.62;;;;;;;;;;4417849;32;20229;-92
2022/08/07 00:57:17;;;;;;;8.93;5.80;;;;;;;;;;4432429;32;20303;-93
2022/08/07 00:59:43;;;;;;;7.22;5.85;;;;;;;;;;4432226;32;20217;-89
2022/08/07 01:02:10;;;;;;;10.93;5.37;;;;;;;;;;4431678;32;20308;-86
2022/08/07 01:04:36;;;;;;;7.62;5.07;;;;;;;;;;4446048;32;20212;-88
2022/08/07 01:07:02;;;;;;;8.32;5.75;;;;;;;;;;4447020;32;20584;-86
2022/08/07 01:09:27;;;;;;;7.97;6.12;;;;;;;;;;4446879;32;20236;-87
2022/08/07 01:11:53;;;;;;;7.28;6.00;;;;;;;;;;4432995;32;20328;-87
2022/08/07 01:14:20;;;;;;;7.22;6.05;;;;;;;;;;4446869;32;20307;-92
2022/08/07 01:16:46;;;;;;;5.97;5.37;;;;;;;;;;4446726;32;20254;-92
2022/08/07 01:19:12;;;;;;;8.10;5.57;;;;;;;;;;4447185;32;20236;-92
2022/08/07 01:21:38;;;;;;;9.05;6.47;;;;;;;;;;4447041;32;20232;-92
2022/08/07 01:24:05;;;;;;;8.82;6.20;;;;;;;;;;4433225;32;20243;-90
2022/08/07 01:26:32;;;;;;;6.57;5.87;;;;;;;;;;4436214;32;20228;-88
2022/08/07 01:28:58;;;;;;;6.18;5.57;;;;;;;;;;4431554;32;20227;-90
2022/08/07 01:31:32;;;;;;;7.78;5.70;;;;;;;;;;4416924;32;20276;-91
2022/08/07 01:33:59;;;;;;;7.45;6.03;;;;;;;;;;4431742;32;20786;-91
2022/08/07 01:36:27;;;;;;;6.80;5.97;;;;;;;;;;4430969;32;20225;-88
2022/08/07 01:38:52;;;;;;;7.20;5.30;;;;;;;;;;4431089;32;20197;-87
2022/08/07 01:41:19;;;;;;;6.43;5.78;;;;;;;;;;4430418;32;20653;-88
2022/08/07 01:43:46;;;;;;;10.18;6.45;;;;;;;;;;4431333;32;20224;-87
2022/08/07 01:46:13;;;;;;;7.70;6.10;;;;;;;;;;4431185;32;20328;-90
2022/08/07 01:48:43;;;;;;;7.30;6.25;;;;;;;;;;4431488;32;20320;-93
2022/08/07 01:51:16;;;;;;;7.53;5.85;;;;;;;;;;4431458;32;20323;-91
2022/08/07 01:53:46;;;;;;;7.12;6.28;;;;;;;;;;4417268;32;20745;-92
2022/08/07 01:56:25;;;;;;;8.63;6.45;;;;;;;;;;4431301;32;20243;-92
2022/08/07 01:59:01;;;;;;;7.15;6.20;;;;;;;;;;4431493;32;20254;-92
2022/08/07 02:01:32;;;;;;;8.07;6.35;;;;;;;;;;4431173;32;20248;-90
2022/08/07 02:04:06;;;;;;;9.25;7.57;;;;;;;;;;4441118;32;20668;-89
2022/08/07 02:06:34;;;;;;;8.80;7.28;;;;;;;;;;4446946;32;20636;-92
2022/08/07 02:09:04;;;;;;;9.23;7.05;;;;;;;;;;4446624;32;20240;-91
2022/08/07 02:11:37;;;;;;;7.72;6.90;;;;;;;;;;4446557;32;20244;-92
2022/08/07 02:14:06;;;;;;;8.80;6.75;;;;;;;;;;4446383;32;20283;-90
2022/08/07 02:16:34;;;;;;;8.27;6.22;;;;;;;;;;4445865;32;20250;-92
2022/08/07 02:19:04;;;;;;;7.32;6.47;;;;;;;;;;4446481;32;20251;-92
2022/08/07 02:21:31;;;;;;;7.47;6.68;;;;;;;;;;4437036;32;21040;-91
2022/08/07 02:23:58;;;;;;;9.15;6.25;;;;;;;;;;4430597;32;20243;-90
2022/08/07 02:26:26;;;;;;;7.03;6.15;;;;;;;;;;4431073;32;20232;-90
2022/08/07 02:28:52;;;;;;;10.38;6.40;;;;;;;;;;4431001;32;20736;-91
2022/08/07 02:31:19;;;;;;;8.05;6.37;;;;;;;;;;4430457;32;20198;-93
2022/08/07 02:33:45;;;;;;;7.20;6.43;;;;;;;;;;4430399;32;20255;-87
2022/08/07 02:36:11;;;;;;;7.25;6.45;;;;;;;;;;4430416;32;20685;-88
2022/08/07 02:38:38;;;;;;;10.88;7.05;;;;;;;;;;4430145;32;20812;-89
2022/08/07 02:41:05;;;;;;;8.38;5.90;;;;;;;;;;4430070;32;20637;-90
2022/08/07 02:43:33;;;;;;;7.93;6.30;;;;;;;;;;4430338;32;20249;-87
2022/08/07 02:46:00;;;;;;;9.32;6.60;;;;;;;;;;4430159;32;20290;-89
2022/08/07 02:48:25;;;;;;;8.27;6.35;;;;;;;;;;4430300;32;20287;-86
2022/08/07 02:50:54;;;;;;;10.38;6.35;;;;;;;;;;4430131;32;20255;-87
2022/08/07 02:53:33;;;;;;;7.75;6.37;;;;;;;;;;4431644;32;20368;-86
2022/08/07 02:56:02;;;;;;;13.27;7.18;;;;;;;;;;4433107;32;20692;-85
2022/08/07 02:58:30;;;;;;;7.00;6.28;;;;;;;;;;4432940;32;20387;-90
2022/08/07 03:00:58;;;;;;;10.35;6.65;;;;;;;;;;4432784;32;20497;-87
2022/08/07 03:03:26;;;;;;;8.55;6.85;;;;;;;;;;4439356;32;20239;-88
2022/08/07 03:05:55;;;;;;;8.60;7.65;;;;;;;;;;4448890;32;20337;-88
2022/08/07 03:08:23;;;;;;;13.68;7.07;;;;;;;;;;4448017;32;20612;-92
2022/08/07 03:10:49;;;;;;;11.07;6.47;;;;;;;;;;4448289;32;20300;-90
2022/08/07 03:13:15;;;;;;;10.90;6.32;;;;;;;;;;4448231;32;20212;-89
2022/08/07 03:15:42;;;;;;;7.45;6.43;;;;;;;;;;4448101;32;20232;-90
2022/08/07 03:18:08;;;;;;;7.18;5.87;;;;;;;;;;4448131;32;20255;-89
2022/08/07 03:20:34;;;;;;;7.15;6.35;;;;;;;;;;4448950;32;20197;-89
2022/08/07 03:23:01;;;;;;;7.20;6.20;;;;;;;;;;4448715;32;20227;-89
2022/08/07 03:25:28;;;;;;;11.77;6.85;;;;;;;;;;4448474;32;20809;-90
2022/08/07 03:27:55;;;;;;;8.73;6.60;;;;;;;;;;4448277;32;20224;-89
2022/08/07 03:30:21;;;;;;;13.18;6.90;;;;;;;;;;4447954;32;20247;-89
2022/08/07 03:32:48;;;;;;;7.60;6.80;;;;;;;;;;4448143;32;20224;-81
2022/08/07 03:35:18;;;;;;;7.10;6.18;;;;;;;;;;4447207;32;20196;-90
2022/08/07 03:37:47;;;;;;;12.73;7.57;;;;;;;;;;4418912;32;20289;-88
2022/08/07 03:40:13;;;;;;;8.63;6.75;;;;;;;;;;4432767;32;20236;-86
2022/08/07 03:42:38;;;;;;;11.65;7.22;;;;;;;;;;4432280;32;20319;-88
2022/08/07 03:45:05;;;;;;;9.13;6.28;;;;;;;;;;4432262;32;20292;-89
2022/08/07 03:47:31;;;;;;;9.02;7.10;;;;;;;;;;4432264;32;20590;-90
2022/08/07 03:49:57;;;;;;;8.05;6.53;;;;;;;;;;4432826;32;20636;-86
2022/08/07 03:52:26;;;;;;;7.15;6.20;;;;;;;;;;4432517;32;20296;-87
2022/08/07 03:54:52;;;;;;;8.45;6.53;;;;;;;;;;4432426;32;20192;-88
2022/08/07 03:57:19;;;;;;;6.75;6.07;;;;;;;;;;4432333;32;20201;-87
2022/08/07 03:59:45;;;;;;;7.97;6.85;;;;;;;;;;4432254;32;20367;-89
2022/08/07 04:02:12;;;;;;;8.32;7.00;;;;;;;;;;4405803;32;20316;-86
2022/08/07 04:04:41;;;;;;;7.50;5.97;;;;;;;;;;4445449;32;20254;-90
2022/08/07 04:07:07;;;;;;;7.25;6.47;;;;;;;;;;4447466;32;20209;-84
2022/08/07 04:09:36;;;;;;;11.48;6.32;;;;;;;;;;4447327;32;20657;-91
2022/08/07 04:12:04;;;;;;;7.22;5.82;;;;;;;;;;4447427;32;20200;-89
2022/08/07 04:14:33;;;;;;;9.38;6.53;;;;;;;;;;4441494;32;20348;-87
2022/08/07 04:16:59;;;;;;;13.32;6.20;;;;;;;;;;4432143;32;20341;-89
2022/08/07 04:19:25;;;;;;;6.78;5.35;;;;;;;;;;4431818;32;20236;-88
2022/08/07 04:21:52;;;;;;;12.32;5.68;;;;;;;;;;4443033;32;20276;-86
2022/08/07 04:24:18;;;;;;;9.77;6.25;;;;;;;;;;4447254;32;20643;-87
2022/08/07 04:26:45;;;;;;;6.57;5.97;;;;;;;;;;4447376;32;20239;-88
2022/08/07 04:29:11;;;;;;;8.60;6.68;;;;;;;;;;4447520;32;20209;-90
2022/08/07 04:31:38;;;;;;;11.68;6.45;;;;;;;;;;4447006;32;20224;-89
2022/08/07 04:34:05;;;;;;;10.00;7.07;;;;;;;;;;4447531;32;20219;-89
2022/08/07 04:36:31;;;;;;;9.02;6.80;;;;;;;;;;4438246;32;20748;-90
2022/08/07 04:38:56;;;;;;;7.90;6.75;;;;;;;;;;4431723;32;20223;-90
2022/08/07 04:41:22;;;;;;;6.80;5.72;;;;;;;;;;4431509;32;20221;-88
2022/08/07 04:43:49;;;;;;;9.35;8.25;;;;;;;;;;4432181;32;20216;-89
2022/08/07 04:46:22;;;;;;;14.65;10.52;;;;;;;;;;4431804;32;20237;-89
2022/08/07 04:49:19;;;;;;;10.93;8.45;;;;;;;;;;4432254;32;20229;-88
2022/08/07 04:52:03;;;;;;;12.13;9.95;;;;;;;;;;4432291;32;20606;-90
2022/08/07 04:54:38;;;;;;;23.42;9.63;;;;;;;;;;4431502;32;20715;-90
2022/08/07 04:57:09;;;;;;;9.48;8.07;;;;;;;;;;4431769;32;20644;-90
2022/08/07 05:00:00;;;;;;;14.68;7.62;;;;;;;;;;4431656;32;20689;-91
2022/08/07 05:02:47;;;;;;;7.95;6.57;;;;;;;;;;4431570;32;20723;-89
2022/08/07 05:05:40;;;;;;;8.23;6.40;;;;;;;;;;4446900;32;20613;-86
2022/08/07 05:08:13;;;;;;;5.62;4.97;;;;;;;;;;4446685;32;20203;-89
2022/08/07 05:10:49;;;;;;;14.68;6.80;;;;;;;;;;4441528;32;20372;-84
2022/08/07 05:13:29;;;;;;;9.38;6.05;;;;;;;;;;4431472;32;20205;-89
2022/08/07 05:15:58;;;;;;;9.75;6.55;;;;;;;;;;4431212;32;20291;-88
2022/08/07 05:18:29;;;;;;;12.13;7.12;;;;;;;;;;4431324;32;20219;-89
2022/08/07 05:21:03;;;;;;;8.77;6.95;;;;;;;;;;4436217;32;20244;-88
2022/08/07 05:23:38;;;;;;;10.02;6.68;;;;;;;;;;4446286;32;20291;-86
2022/08/07 05:26:06;;;;;;;9.68;6.03;;;;;;;;;;4446489;32;20211;-90
2022/08/07 05:28:34;;;;;;;12.13;6.65;;;;;;;;;;4432604;32;20620;-89
2022/08/07 05:31:01;;;;;;;8.30;6.70;;;;;;;;;;4446363;32;20354;-89
2022/08/07 05:33:28;;;;;;;16.25;6.70;;;;;;;;;;4420425;32;20217;-88
2022/08/07 05:35:55;;;;;;;12.45;7.05;;;;;;;;;;4441662;32;20263;-89
2022/08/07 05:38:21;;;;;;;8.45;7.22;;;;;;;;;;4431110;32;20542;-90
2022/08/07 05:40:47;;;;;;;9.95;6.25;;;;;;;;;;4430713;32;20221;-86
2022/08/07 05:43:13;;;;;;;9.90;6.32;;;;;;;;;;4431170;32;20265;-91
2022/08/07 05:45:42;;;;;;;10.85;7.55;;;;;;;;;;4430709;32;20747;-88
2022/08/07 05:48:08;;;;;;;10.75;6.55;;;;;;;;;;4431114;32;20320;-88
2022/08/07 05:50:34;;;;;;;11.35;6.60;;;;;;;;;;4431307;32;20267;-87
2022/08/07 05:53:01;;;;;;;7.95;5.93;;;;;;;;;;4430759;32;20610;-89
2022/08/07 05:55:29;;;;;;;10.60;7.45;;;;;;;;;;4430758;32;20228;-87
2022/08/07 05:57:56;;;;;;;7.50;6.60;;;;;;;;;;4431854;32;20750;-93
2022/08/07 06:00:23;;;;;;;7.07;6.35;;;;;;;;;;4434978;32;20302;-93
2022/08/07 06:02:51;;;;;;;12.13;6.65;;;;;;;;;;4422627;32;20307;-90
2022/08/07 06:05:19;;;;;;;14.15;7.18;;;;;;;;;;4448547;32;20315;-90
2022/08/07 06:07:45;;;;;;;9.30;6.78;;;;;;;;;;4437730;32;20213;-92
2022/08/07 06:10:11;;;;;;;13.75;7.05;;;;;;;;;;4432376;32;20233;-92
2022/08/07 06:12:37;;;;;;;12.07;6.68;;;;;;;;;;4431861;32;20301;-87
2022/08/07 06:15:03;;;;;;;11.50;5.72;;;;;;;;;;4430198;32;20255;-85
2022/08/07 06:17:31;;;;;;;13.25;6.03;;;;;;;;;;4430784;32;20385;-85
2022/08/07 06:19:58;;;;;;;5.70;5.05;;;;;;;;;;4430756;32;20235;-83
2022/08/07 06:22:25;;;;;;;11.07;5.72;;;;;;;;;;4415537;32;20904;-83
2022/08/07 06:24:51;;;;;;;8.93;5.90;;;;;;;;;;4430432;32;20224;-83
2022/08/07 06:27:23;;;;;;;9.85;5.87;;;;;;;;;;4430685;32;20217;-82
2022/08/07 06:29:49;;;;;;;8.35;5.30;;;;;;;;;;4433166;32;20206;-82
2022/08/07 06:32:15;;;;;;;8.95;5.75;;;;;;;;;;4433211;32;20225;-82
2022/08/07 06:34:40;;;;;;;7.22;6.10;;;;;;;;;;4434009;32;20224;-83
2022/08/07 06:37:07;;;;;;;9.80;6.07;;;;;;;;;;4433206;32;20396;-83
2022/08/07 06:39:32;;;;;;;7.97;6.05;;;;;;;;;;4433008;32;20239;-83
2022/08/07 06:42:35;;;;;;;9.38;7.22;;;;;;;;;;4432290;32;20295;-82
2022/08/07 06:45:01;;;;;;;14.77;7.65;;;;;;;;;;4431852;32;20280;-83
2022/08/07 06:47:27;;;;;;;7.93;6.12;;;;;;;;;;4432187;32;20221;-83
2022/08/07 06:49:52;;;;;;;11.88;6.60;;;;;;;;;;4432844;32;20281;-85
2022/08/07 06:52:19;;;;;;;11.23;6.53;;;;;;;;;;4436866;32;20342;-86
2022/08/07 06:54:49;;;;;;;6.30;5.45;;;;;;;;;;4444839;32;20298;-87
2022/08/07 06:57:15;;;;;;;8.88;6.68;;;;;;;;;;4433048;32;20313;-86
2022/08/07 06:59:43;;;;;;;9.25;7.05;;;;;;;;;;4439615;32;20939;-84
2022/08/07 07:02:19;;;;;;;9.70;6.30;;;;;;;;;;4448339;32;20283;-84
2022/08/07 07:04:45;;;;;;;6.78;5.62;;;;;;;;;;4433060;32;20236;-84
2022/08/07 07:07:12;;;;;;;8.65;5.72;;;;;;;;;;4434768;32;20271;-84
2022/08/07 07:09:46;;;;;;;7.18;5.57;;;;;;;;;;4446050;32;20237;-83
2022/08/07 07:12:31;;;;;;;7.07;5.43;;;;;;;;;;4447906;32;20796;-84
2022/08/07 07:15:06;;;;;;;20.55;5.15;;;;;;;;;;4447682;32;20224;-86
2022/08/07 07:18:07;;;;;;;5.53;4.95;;;;;;;;;;4448280;32;20258;-85
2022/08/07 07:20:36;;;;;;;5.95;5.20;;;;;;;;;;4419462;32;20367;-86
2022/08/07 07:23:04;;;;;;;9.75;4.72;;;;;;;;;;4408873;32;20710;-85
2022/08/07 07:25:31;;;;;;;5.50;4.78;;;;;;;;;;4399342;32;20209;-86
2022/08/07 07:28:05;;;;;;;12.60;4.55;;;;;;;;;;4402126;32;20226;-87
2022/08/07 07:30:37;;;;;;;4.95;4.53;;;;;;;;;;4401555;32;20213;-86
2022/08/07 07:33:05;;;;;;;8.70;4.70;;;;;;;;;;4401822;32;20225;-86
2022/08/07 07:35:33;;;;;;;6.25;4.53;;;;;;;;;;4401797;32;20672;-87
2022/08/07 07:38:01;;;;;;;7.03;3.95;;;;;;;;;;4400847;32;20238;-86
2022/08/07 07:40:29;;;;;;;5.80;5.20;;;;;;;;;;4401788;32;20202;-87
2022/08/07 07:42:57;;;;;;;8.98;5.20;;;;;;;;;;4401558;32;20236;-87
2022/08/07 07:45:25;;;;;;;5.37;4.87;;;;;;;;;;4401446;32;20304;-87
2022/08/07 07:47:52;;;;;;;6.05;5.00;;;;;;;;;;4402107;32;20197;-85
2022/08/07 07:50:20;;;;;;;7.18;5.00;;;;;;;;;;4401315;32;20303;-87
2022/08/07 07:52:47;;;;;;;6.65;5.07;;;;;;;;;;4387009;32;20220;-86
2022/08/07 07:55:16;;;;;;;9.27;4.90;;;;;;;;;;4386345;32;20255;-85
2022/08/07 07:57:43;;;;;;;10.85;5.35;;;;;;;;;;4386348;32;20229;-85
2022/08/07 08:00:11;;;;;;;7.28;5.68;;;;;;;;;;4397897;32;20346;-86
2022/08/07 08:02:40;;;;;;;5.95;5.35;;;;;;;;;;4401354;32;20206;-85
2022/08/07 08:05:08;;;;;;;7.37;5.25;;;;;;;;;;4401636;32;20256;-83
2022/08/07 08:07:35;;;;;;;8.20;7.07;;;;;;;;;;4400058;32;20256;-85
2022/08/07 08:10:02;;;;;;;14.57;4.87;;;;;;;;;;4401049;32;20241;-84
2022/08/07 08:12:29;;;;;;;6.28;4.78;;;;;;;;;;4401661;32;20256;-85
2022/08/07 08:14:54;;;;;;;8.57;4.60;;;;;;;;;;4400660;32;20245;-84
2022/08/07 08:17:22;;;;;;;7.55;5.12;;;;;;;;;;4399540;32;20288;-85
2022/08/07 08:19:51;;;;;;;7.07;5.32;;;;;;;;;;4399794;32;20243;-85
2022/08/07 08:27:53;;;;;;;7.40;4.95;;;;;;;;;;4400068;32;20244;-85
2022/08/07 08:30:18;;;;;;;5.78;5.07;;;;;;;;;;4399395;32;20241;-85
2022/08/07 08:32:48;;;;;;;6.00;4.85;;;;;;;;;;4400006;32;20271;-84
2022/08/07 08:35:20;;;;;;;7.57;4.85;;;;;;;;;;4401525;32;20216;-84
2022/08/07 08:37:47;;;;;;;10.20;5.43;;;;;;;;;;4401676;32;20194;-86
2022/08/07 08:40:21;;;;;;;5.85;5.00;;;;;;;;;;4401212;32;20713;-86
2022/08/07 08:43:22;;;;;;;10.02;5.53;;;;;;;;;;4401202;32;20206;-82
2022/08/07 08:46:14;;;;;;;7.72;5.37;;;;;;;;;;4401013;32;20224;-84
2022/08/07 08:49:09;;;;;;;12.30;5.30;;;;;;;;;;4401174;32;20189;-84
2022/08/07 08:51:59;;;;;;;7.70;4.70;;;;;;;;;;4400435;32;20332;-85
2022/08/07 08:54:32;;;;;;;5.53;4.72;;;;;;;;;;4401237;32;20216;-84
2022/08/07 08:57:07;;;;;;;6.35;4.95;;;;;;;;;;4400879;32;20234;-86
2022/08/07 08:59:44;;;;;;;11.02;4.90;;;;;;;;;;4400518;32;20209;-87
2022/08/07 09:02:29;;;;;;;5.30;4.28;;;;;;;;;;4387456;32;20575;-86
2022/08/07 09:05:17;;;;;;;6.30;4.57;;;;;;;;;;4401919;32;20221;-84
2022/08/07 09:07:48;;;;;;;5.28;4.78;;;;;;;;;;4401209;32;20216;-88
2022/08/07 09:10:32;;;;;;;5.97;5.30;;;;;;;;;;4400722;32;20251;-85
2022/08/07 09:13:12;;;;;;;7.45;5.10;;;;;;;;;;4400234;32;20218;-85
2022/08/07 09:15:49;;;;;;;9.57;5.62;;;;;;;;;;4394622;32;20221;-86
2022/08/07 09:18:31;;;;;;;8.40;5.40;;;;;;;;;;4387405;32;20304;-84
2022/08/07 09:21:10;;;;;;;8.45;4.85;;;;;;;;;;4392032;32;20221;-84
2022/08/07 09:23:50;;;;;;;8.05;6.57;;;;;;;;;;4400454;32;20233;-84
2022/08/07 09:26:44;;;;;;;12.02;6.82;;;;;;;;;;4400717;32;20241;-85
2022/08/07 09:29:31;;;;;;;7.32;5.93;;;;;;;;;;4401558;32;20298;-86
2022/08/07 09:32:24;;;;;;;7.22;5.45;;;;;;;;;;4406068;32;20221;-83
2022/08/07 09:35:17;;;;;;;6.22;5.10;;;;;;;;;;4405200;32;20273;-86
2022/08/07 09:38:06;;;;;;;7.93;5.35;;;;;;;;;;4404935;32;20251;-86
2022/08/07 09:41:20;;;;;;;7.85;5.25;;;;;;;;;;4407112;32;20374;-85
2022/08/07 09:44:00;;;;;;;6.25;5.28;;;;;;;;;;4375365;32;20265;-84
2022/08/07 09:46:42;;;;;;;6.40;5.65;;;;;;;;;;4374379;32;20254;-81
2022/08/07 09:49:29;;;;;;;11.90;5.30;;;;;;;;;;4400987;32;20237;-81
2022/08/07 09:52:21;;;;;;;7.22;6.25;;;;;;;;;;4406130;32;20249;-82
2022/08/07 09:54:53;;;;;;;6.45;5.62;;;;;;;;;;4384822;32;20262;-88
2022/08/07 09:57:23;;;;;;;6.70;5.50;;;;;;;;;;4385461;32;20718;-85
2022/08/07 10:00:12;;;;;;;7.18;5.87;;;;;;;;;;4399093;32;20339;-81
2022/08/07 10:03:21;;;;;;;16.37;6.07;;;;;;;;;;4402475;32;20200;-85
2022/08/07 10:06:20;;;;;;;7.25;6.10;;;;;;;;;;4329445;33;20643;-85
2022/08/07 10:09:07;;;;;;;10.95;6.47;;;;;;;;;;4344308;33;20243;-85
2022/08/07 10:11:59;;;;;;;7.50;5.85;;;;;;;;;;4385689;32;20241;-85
2022/08/07 10:14:46;;;;;;;8.05;5.78;;;;;;;;;;4389626;32;20255;-85
2022/08/07 10:17:49;;;;;;;8.48;6.57;;;;;;;;;;4390878;32;20229;-84
2022/08/07 10:20:31;;;;;;;10.60;6.15;;;;;;;;;;4366388;32;20217;-81
2022/08/07 10:23:12;;;;;;;13.50;6.72;;;;;;;;;;4403399;32;20229;-85
2022/08/07 10:26:02;;;;;;;7.32;6.00;;;;;;;;;;4402958;32;20300;-82
2022/08/07 10:29:05;;;;;;;9.00;6.32;;;;;;;;;;4402733;32;20558;-81
2022/08/07 10:31:46;;;;;;;9.45;5.55;;;;;;;;;;4402459;32;20237;-83
2022/08/07 10:34:17;;;;;;;8.18;6.00;;;;;;;;;;4403053;32;20241;-83
2022/08/07 10:37:04;;;;;;;7.60;5.95;;;;;;;;;;4402376;32;20681;-85
2022/08/07 10:39:52;;;;;;;7.22;5.97;;;;;;;;;;4402320;32;20209;-85
2022/08/07 10:42:18;;;;;;;6.20;4.93;;;;;;;;;;4402629;32;20310;-85
2022/08/07 10:45:05;;;;;;;6.95;5.22;;;;;;;;;;4402209;32;20226;-84
2022/08/07 10:47:41;;;;;;;7.57;5.60;;;;;;;;;;4401815;32;20288;-85
2022/08/07 10:50:15;;;;;;;12.13;5.75;;;;;;;;;;4401101;32;20335;-84
2022/08/07 10:52:53;;;;;;;15.80;6.07;;;;;;;;;;4398319;32;20288;-84
2022/08/07 10:55:46;;;;;;;7.05;5.25;;;;;;;;;;4403156;32;20426;-85
2022/08/07 10:58:49;;;;;;;12.82;5.95;;;;;;;;;;4401699;32;20274;-85
2022/08/07 11:01:26;;;;;;;9.05;5.85;;;;;;;;;;4387143;32;20312;-86
2022/08/07 11:04:29;;;;;;;7.75;6.32;;;;;;;;;;4387573;32;20673;-86
2022/08/07 11:07:05;;;;;;;6.85;5.22;;;;;;;;;;4371109;32;20245;-86
2022/08/07 11:09:38;;;;;;;9.93;5.22;;;;;;;;;;4401975;32;20311;-84
2022/08/07 11:12:12;;;;;;;8.70;5.85;;;;;;;;;;4401238;32;20722;-84
2022/08/07 11:14:46;;;;;;;11.75;5.22;;;;;;;;;;4402077;32;20446;-88
2022/08/07 11:17:28;;;;;;;6.00;5.28;;;;;;;;;;4402237;32;20225;-88
2022/08/07 11:20:13;;;;;;;8.35;4.47;;;;;;;;;;4402738;32;20228;-88
2022/08/07 11:22:45;;;;;;;4.97;4.22;;;;;;;;;;4386992;32;20280;-85
2022/08/07 11:25:31;;;;;;;7.55;4.57;;;;;;;;;;4396608;32;20236;-84
2022/08/07 11:28:11;;;;;;;5.68;4.40;;;;;;;;;;4401562;32;20209;-81
2022/08/07 11:30:44;;;;;;;13.30;5.12;;;;;;;;;;4401733;32;20229;-85
2022/08/07 11:33:37;;;;;;;10.23;5.07;;;;;;;;;;4402330;32;20214;-85
2022/08/07 11:36:28;;;;;;;6.28;5.00;;;;;;;;;;4402584;32;20222;-85
2022/08/07 11:39:05;;;;;;;7.50;5.10;;;;;;;;;;4402397;32;20257;-90
2022/08/07 11:41:38;;;;;;;9.40;5.20;;;;;;;;;;4400931;32;20229;-88
2022/08/07 11:44:33;;;;;;;8.32;4.87;;;;;;;;;;4400109;32;20752;-90
2022/08/07 11:47:21;;;;;;;10.43;5.05;;;;;;;;;;4400113;32;20230;-91
2022/08/07 11:50:14;;;;;;;7.00;5.03;;;;;;;;;;4400800;32;20288;-91
2022/08/07 11:52:48;;;;;;;8.93;5.45;;;;;;;;;;4389333;32;20241;-91
2022/08/07 11:55:42;;;;;;;7.40;5.03;;;;;;;;;;4386589;32;20205;-91
2022/08/07 11:58:39;;;;;;;10.88;5.07;;;;;;;;;;4401244;32;20246;-89
2022/08/07 12:01:43;;;;;;;10.63;5.45;;;;;;;;;;4386590;32;20556;-91
2022/08/07 12:04:26;;;;;;;6.55;4.80;;;;;;;;;;4387175;32;20197;-92
2022/08/07 12:06:54;;;;;;;6.65;5.28;;;;;;;;;;4386626;32;20687;-91
2022/08/07 12:09:38;;;;;;;8.63;5.40;;;;;;;;;;4386361;32;20297;-92
2022/08/07 12:12:10;;;;;;;11.95;6.20;;;;;;;;;;4385917;32;20300;-91
2022/08/07 12:14:46;;;;;;;7.22;5.87;;;;;;;;;;4386517;32;20218;-92
2022/08/07 12:17:15;;;;;;;7.22;5.68;;;;;;;;;;4386747;32;20225;-92
2022/08/07 12:19:53;;;;;;;10.75;6.15;;;;;;;;;;4386791;32;20318;-92
2022/08/07 12:22:27;;;;;;;6.53;5.55;;;;;;;;;;4400103;32;20237;-92
2022/08/07 12:28:10;;;;;;;9.43;5.18;;;;;;;;;;4401186;32;20274;-90
2022/08/07 12:30:38;;;;;;;5.95;5.37;;;;;;;;;;4401560;32;20402;-91
2022/08/07 12:33:11;;;;;;;7.18;4.80;;;;;;;;;;4401362;32;20229;-89
2022/08/07 12:35:41;;;;;;;6.72;4.93;;;;;;;;;;4401253;32;20271;-92
2022/08/07 12:38:07;;;;;;;6.55;5.45;;;;;;;;;;4400543;32;20513;-92
2022/08/07 12:40:35;;;;;;;6.53;5.60;;;;;;;;;;4401738;32;20289;-92
2022/08/07 12:43:03;;;;;;;5.45;4.95;;;;;;;;;;4401170;32;20273;-94
2022/08/07 12:45:45;;;;;;;8.48;4.95;;;;;;;;;;4401551;32;20302;-89
2022/08/07 12:48:35;;;;;;;10.20;5.68;;;;;;;;;;4401843;32;20683;-91
2022/08/07 12:51:14;;;;;;;5.60;4.80;;;;;;;;;;4401532;32;20257;-86
2022/08/07 12:53:48;;;;;;;4.68;4.18;;;;;;;;;;4401322;32;20346;-92
2022/08/07 12:56:32;;;;;;;8.77;4.55;;;;;;;;;;4400887;32;20224;-92
2022/08/07 12:58:59;;;;;;;7.45;4.45;;;;;;;;;;4401107;32;20210;-92
2022/08/07 13:01:24;;;;;;;7.82;5.32;;;;;;;;;;4401106;32;20260;-91
2022/08/07 13:04:05;;;;;;;9.02;5.22;;;;;;;;;;4401854;32;20228;-92
2022/08/07 13:06:56;;;;;;;7.57;4.35;;;;;;;;;;4401616;32;20240;-92
2022/08/07 13:09:21;;;;;;;6.87;4.97;;;;;;;;;;4401457;32;20577;-93
2022/08/07 13:12:17;;;;;;;5.15;4.65;;;;;;;;;;4400617;32;20332;-90
2022/08/07 13:15:02;;;;;;;6.35;5.07;;;;;;;;;;4399950;32;20272;-91
2022/08/07 13:18:16;;;;;;;7.40;5.60;;;;;;;;;;4401889;32;20225;-92
2022/08/07 13:20:58;;;;;;;6.22;5.55;;;;;;;;;;4372640;32;20237;-93
2022/08/07 13:23:50;;;;;;;7.65;6.18;;;;;;;;;;4400005;32;20206;-89
2022/08/07 13:26:25;;;;;;;16.58;5.70;;;;;;;;;;4400900;32;20229;-91
2022/08/07 13:29:08;;;;;;;6.82;5.53;;;;;;;;;;4401113;32;20204;-92
2022/08/07 13:32:04;;;;;;;5.75;4.93;;;;;;;;;;4401224;32;20229;-91
2022/08/07 13:34:53;;;;;;;11.02;6.20;;;;;;;;;;4394835;32;20313;-92
2022/08/07 13:37:27;;;;;;;15.15;5.78;;;;;;;;;;4399685;32;20252;-91
2022/08/07 13:40:14;;;;;;;13.35;4.78;;;;;;;;;;4401171;32;20243;-94
2022/08/07 13:42:41;;;;;;;14.43;5.37;;;;;;;;;;4400844;32;20202;-91
2022/08/07 13:45:09;;;;;;;19.35;6.30;;;;;;;;;;4401208;32;20267;-94
2022/08/07 13:47:37;;;;;;;17.40;6.18;;;;;;;;;;4400809;32;20218;-92
2022/08/07 13:50:06;;;;;;;17.62;6.20;;;;;;;;;;4399774;32;20571;-91
2022/08/07 13:52:35;;;;;;;10.40;6.12;;;;;;;;;;4400650;32;20321;-89
2022/08/07 13:55:19;;;;;;;13.13;6.25;;;;;;;;;;4400922;32;20202;-91
2022/08/07 13:57:48;;;;;;;16.60;5.68;;;;;;;;;;4399482;32;20218;-92
2022/08/07 14:00:16;;;;;;;12.95;5.90;;;;;;;;;;4398094;32;20691;-91
2022/08/07 14:02:50;;;;;;;14.82;6.22;;;;;;;;;;4400789;32;20618;-88
2022/08/07 14:05:21;;;;;;;17.25;5.93;;;;;;;;;;4400888;32;20279;-92
2022/08/07 14:07:50;;;;;;;16.42;6.07;;;;;;;;;;4400861;32;20225;-90
2022/08/07 14:10:17;;;;;;;20.08;7.28;;;;;;;;;;4399157;32;20241;-93
2022/08/07 14:12:56;;;;;;;12.82;6.32;;;;;;;;;;4400587;32;20303;-93
2022/08/07 14:15:51;;;;;;;21.12;6.43;;;;;;;;;;4400667;32;20202;-92
2022/08/07 14:18:31;;;;;;;23.33;6.60;;;;;;;;;;4401334;32;20218;-93
2022/08/07 14:21:21;;;;;;;16.75;6.53;;;;;;;;;;4400982;32;20247;-93
2022/08/07 14:24:08;;;;;;;16.73;7.18;;;;;;;;;;4401108;32;20247;-93
2022/08/07 14:26:41;;;;;;;13.85;6.30;;;;;;;;;;4400587;32;20206;-92
2022/08/07 14:29:10;;;;;;;16.50;5.87;;;;;;;;;;4401007;32;20236;-94
2022/08/07 14:31:37;;;;;;;11.93;6.47;;;;;;;;;;4400801;32;20225;-93
2022/08/07 14:34:06;;;;;;;8.23;5.50;;;;;;;;;;4401001;32;20202;-94
2022/08/07 14:36:33;;;;;;;10.02;6.40;;;;;;;;;;4400870;32;20299;-93
2022/08/07 14:39:02;;;;;;;7.87;5.50;;;;;;;;;;4401039;32;20228;-93
2022/08/07 14:41:33;;;;;;;9.77;6.37;;;;;;;;;;4400733;32;20209;-90
2022/08/07 14:44:07;;;;;;;10.50;6.00;;;;;;;;;;4401014;32;20302;-93
2022/08/07 14:46:36;;;;;;;16.65;5.85;;;;;;;;;;4401095;32;20240;-92
2022/08/07 14:49:02;;;;;;;16.58;6.50;;;;;;;;;;4402237;32;20232;-93
2022/08/07 14:51:32;;;;;;;7.68;5.87;;;;;;;;;;4402524;32;20256;-93
2022/08/07 14:54:00;;;;;;;6.37;5.15;;;;;;;;;;4403959;32;20217;-94
2022/08/07 14:56:28;;;;;;;6.37;5.35;;;;;;;;;;4397590;32;20230;-93
2022/08/07 14:58:59;;;;;;;6.72;5.12;;;;;;;;;;4396914;32;20303;-93
2022/08/07 15:01:31;;;;;;;7.55;5.57;;;;;;;;;;4403154;32;20217;-90
2022/08/07 15:04:05;;;;;;;11.52;5.62;;;;;;;;;;4406669;32;20260;-88
2022/08/07 15:06:36;;;;;;;5.95;5.05;;;;;;;;;;4411296;32;20237;-93
2022/08/07 15:09:04;;;;;;;8.93;5.20;;;;;;;;;;4404652;32;20233;-91
2022/08/07 15:11:34;;;;;;;6.75;5.22;;;;;;;;;;4403695;32;20249;-93
2022/08/07 15:14:04;;;;;;;6.47;5.62;;;;;;;;;;4403739;32;20654;-87
2022/08/07 15:16:44;;;;;;;10.73;6.07;;;;;;;;;;4403532;32;20317;-88
2022/08/07 15:19:17;;;;;;;7.93;5.22;;;;;;;;;;4403228;32;20706;-88
2022/08/07 15:21:50;;;;;;;11.18;4.47;;;;;;;;;;4402751;32;20213;-89
2022/08/07 15:24:22;;;;;;;6.47;4.68;;;;;;;;;;4402819;32;20279;-92